createdAt,value
2017-09-28T00:00:23.591Z,21.00
2017-09-28T00:02:58.176Z,21.10
2017-09-28T00:05:33.193Z,21.10
2017-09-28T00:08:07.135Z,21.10
2017-09-28T00:10:41.097Z,21.00
2017-09-28T00:13:14.837Z,21.00
2017-09-28T00:15:48.782Z,21.00
2017-09-28T00:18:23.561Z,21.00
2017-09-28T00:20:57.595Z,21.00
2017-09-28T00:23:31.566Z,21.00
2017-09-28T00:26:05.338Z,21.00
2017-09-28T00:28:39.089Z,21.10
2017-09-28T00:33:53.789Z,21.10
2017-09-28T00:36:28.269Z,21.00
2017-09-28T00:39:02.435Z,21.00
2017-09-28T00:41:36.280Z,21.00
2017-09-28T00:44:10.056Z,21.00
2017-09-28T00:46:43.780Z,21.00
2017-09-28T00:49:17.643Z,21.00
2017-09-28T00:51:51.352Z,21.00
2017-09-28T00:54:25.846Z,21.00
2017-09-28T00:56:59.946Z,21.00
2017-09-28T00:59:34.580Z,21.00
2017-09-28T01:02:09.405Z,21.00
2017-09-28T01:04:43.550Z,21.00
2017-09-28T01:07:17.511Z,21.00
2017-09-28T01:09:51.101Z,21.00
2017-09-28T01:12:25.113Z,21.00
2017-09-28T01:14:58.848Z,21.00
2017-09-28T01:17:32.592Z,21.00
2017-09-28T01:20:07.092Z,21.00
2017-09-28T01:22:41.199Z,20.90
2017-09-28T01:25:15.689Z,21.00
2017-09-28T01:27:49.845Z,21.00
2017-09-28T01:30:23.734Z,21.00
2017-09-28T01:32:58.336Z,21.00
2017-09-28T01:35:32.392Z,21.00
2017-09-28T01:38:06.868Z,21.00
2017-09-28T01:40:40.936Z,21.00
2017-09-28T01:43:14.754Z,20.90
2017-09-28T01:45:48.548Z,20.90
2017-09-28T01:48:22.368Z,20.90
2017-09-28T01:50:57.118Z,21.00
2017-09-28T01:53:31.170Z,20.90
2017-09-28T01:56:05.043Z,21.00
2017-09-28T01:58:38.866Z,20.90
2017-09-28T02:01:12.765Z,20.90
2017-09-28T02:03:46.526Z,20.90
2017-09-28T02:06:20.301Z,20.90
2017-09-28T02:08:54.186Z,20.90
2017-09-28T02:11:28.691Z,20.90
2017-09-28T02:14:02.948Z,20.90
2017-09-28T02:16:36.865Z,20.90
2017-09-28T02:19:10.717Z,20.90
2017-09-28T02:21:45.295Z,20.90
2017-09-28T02:24:19.960Z,20.90
2017-09-28T02:26:53.973Z,20.80
2017-09-28T02:29:28.621Z,20.80
2017-09-28T02:32:03.236Z,20.80
2017-09-28T02:34:37.350Z,20.80
2017-09-28T02:37:11.077Z,20.90
2017-09-28T02:39:45.565Z,20.80
2017-09-28T02:42:20.491Z,20.90
2017-09-28T02:44:54.712Z,20.80
2017-09-28T02:47:28.373Z,20.80
2017-09-28T02:50:02.161Z,20.90
2017-09-28T02:52:36.631Z,20.80
2017-09-28T02:55:11.305Z,20.80
2017-09-28T02:57:46.206Z,20.80
2017-09-28T03:00:20.440Z,20.80
2017-09-28T03:02:54.465Z,20.80
2017-09-28T03:05:28.372Z,20.80
2017-09-28T03:08:03.045Z,20.80
2017-09-28T03:10:37.917Z,20.80
2017-09-28T03:13:11.869Z,20.80
2017-09-28T03:15:45.846Z,20.80
2017-09-28T03:18:19.597Z,20.80
2017-09-28T03:20:53.506Z,20.80
2017-09-28T03:23:27.774Z,20.80
2017-09-28T03:26:02.126Z,20.80
2017-09-28T03:28:36.889Z,20.80
2017-09-28T03:31:10.883Z,20.80
2017-09-28T03:33:45.422Z,20.80
2017-09-28T03:36:20.154Z,20.80
2017-09-28T03:38:54.102Z,20.80
2017-09-28T03:41:27.905Z,20.80
2017-09-28T03:44:01.652Z,20.80
2017-09-28T03:46:35.449Z,20.80
2017-09-28T03:49:09.149Z,20.80
2017-09-28T03:51:42.853Z,20.80
2017-09-28T03:54:16.657Z,20.70
2017-09-28T03:56:51.320Z,20.80
2017-09-28T03:59:26.008Z,20.80
2017-09-28T04:02:00.044Z,20.80
2017-09-28T04:04:34.249Z,20.80
2017-09-28T04:07:08.592Z,20.80
2017-09-28T04:09:42.415Z,20.80
2017-09-28T04:12:16.269Z,20.70
2017-09-28T04:14:50.694Z,20.80
2017-09-28T04:17:24.822Z,20.80
2017-09-28T04:19:58.773Z,20.70
2017-09-28T04:22:32.566Z,20.70
2017-09-28T04:25:06.341Z,20.80
2017-09-28T04:27:40.420Z,20.80
2017-09-28T04:30:14.145Z,20.80
2017-09-28T04:32:48.572Z,20.80
2017-09-28T04:35:22.552Z,20.70
2017-09-28T04:37:57.453Z,20.80
2017-09-28T04:40:31.283Z,20.70
2017-09-28T04:43:05.138Z,20.70
2017-09-28T04:45:38.921Z,20.70
2017-09-28T04:48:13.538Z,20.70
2017-09-28T04:50:47.341Z,20.80
2017-09-28T04:53:21.781Z,20.70
2017-09-28T04:55:55.802Z,20.70
2017-09-28T04:58:29.688Z,20.70
2017-09-28T05:01:03.402Z,20.70
2017-09-28T05:16:27.145Z,20.60
2017-09-28T05:19:01.679Z,20.70
2017-09-28T05:21:35.721Z,20.60
2017-09-28T05:24:09.617Z,20.70
2017-09-28T05:26:44.236Z,20.70
2017-09-28T05:29:18.276Z,20.70
2017-09-28T05:31:51.905Z,20.70
2017-09-28T05:34:25.877Z,20.70
2017-09-28T05:37:00.478Z,20.60
2017-09-28T05:39:34.505Z,20.60
2017-09-28T05:42:08.403Z,20.60
2017-09-28T05:44:42.218Z,20.60
2017-09-28T05:47:16.209Z,20.60
2017-09-28T05:49:50.778Z,20.60
2017-09-28T05:52:24.485Z,20.60
2017-09-28T05:54:59.921Z,20.60
2017-09-28T05:57:33.786Z,20.60
2017-09-28T06:00:07.756Z,20.70
2017-09-28T06:02:44.278Z,20.60
2017-09-28T06:05:18.075Z,20.60
2017-09-28T06:07:51.974Z,20.60
2017-09-28T06:10:25.629Z,20.60
2017-09-28T06:12:59.540Z,20.60
2017-09-28T06:15:33.278Z,20.60
2017-09-28T06:18:07.017Z,20.60
2017-09-28T06:20:40.752Z,20.60
2017-09-28T06:23:14.506Z,20.60
2017-09-28T06:25:48.349Z,20.60
2017-09-28T06:28:22.000Z,20.60
2017-09-28T06:30:55.729Z,20.60
2017-09-28T06:33:30.217Z,20.60
2017-09-28T06:36:04.105Z,20.50
2017-09-28T06:38:37.909Z,20.50
2017-09-28T06:41:11.790Z,20.50
2017-09-28T06:43:47.093Z,20.60
2017-09-28T06:46:21.781Z,20.60
2017-09-28T06:48:55.729Z,20.60
2017-09-28T06:51:30.125Z,20.50
2017-09-28T06:54:03.989Z,20.50
2017-09-28T06:56:37.637Z,20.50
2017-09-28T06:59:11.460Z,20.50
2017-09-28T07:01:45.162Z,20.50
2017-09-28T07:04:19.089Z,20.50
2017-09-28T07:06:54.132Z,20.50
2017-09-28T07:09:28.641Z,20.50
2017-09-28T07:12:02.545Z,20.50
2017-09-28T07:14:36.317Z,20.50
2017-09-28T07:17:10.064Z,20.50
2017-09-28T07:19:44.465Z,20.50
2017-09-28T07:22:19.036Z,20.50
2017-09-28T07:24:53.902Z,20.50
2017-09-28T07:27:27.909Z,20.50
2017-09-28T07:30:01.522Z,20.50
2017-09-28T07:32:35.340Z,20.50
2017-09-28T07:35:09.225Z,20.50
2017-09-28T07:37:43.750Z,20.60
2017-09-28T07:40:18.713Z,20.60
2017-09-28T07:42:52.675Z,20.50
2017-09-28T07:45:26.686Z,20.60
2017-09-28T07:48:00.415Z,20.60
2017-09-28T07:50:34.332Z,20.60
2017-09-28T07:53:08.153Z,20.60
2017-09-28T07:55:42.823Z,20.50
2017-09-28T07:58:17.211Z,20.50
2017-09-28T08:00:50.990Z,20.60
2017-09-28T08:03:25.572Z,20.60
2017-09-28T08:05:59.487Z,20.60
2017-09-28T08:08:33.689Z,20.60
2017-09-28T08:11:08.008Z,20.60
2017-09-28T08:13:42.550Z,20.60
2017-09-28T08:16:16.201Z,20.50
2017-09-28T08:18:51.487Z,20.60
2017-09-28T08:21:25.930Z,20.60
2017-09-28T08:24:00.549Z,20.70
2017-09-28T08:26:34.698Z,20.70
2017-09-28T08:29:09.066Z,20.70
2017-09-28T08:31:44.108Z,20.70
2017-09-28T08:34:18.188Z,20.70
2017-09-28T08:36:52.760Z,20.70
2017-09-28T08:39:26.622Z,20.70
2017-09-28T08:42:00.421Z,20.70
2017-09-28T08:44:34.096Z,20.80
2017-09-28T08:47:07.925Z,20.80
2017-09-28T08:49:41.746Z,20.70
2017-09-28T08:52:15.604Z,20.70
2017-09-28T08:54:49.378Z,20.70
2017-09-28T08:57:23.169Z,20.80
2017-09-28T08:59:57.778Z,20.70
2017-09-28T09:02:31.713Z,20.70
2017-09-28T09:05:05.424Z,20.70
2017-09-28T09:07:39.150Z,20.80
2017-09-28T09:10:13.768Z,20.80
2017-09-28T09:12:47.578Z,20.80
2017-09-28T09:15:21.420Z,20.80
2017-09-28T09:17:55.065Z,20.80
2017-09-28T09:20:29.008Z,20.80
2017-09-28T09:23:02.676Z,20.80
2017-09-28T09:25:36.748Z,20.90
2017-09-28T09:28:11.396Z,20.80
2017-09-28T09:30:45.385Z,20.80
2017-09-28T09:33:20.630Z,20.90
2017-09-28T09:35:54.650Z,20.90
2017-09-28T09:38:28.347Z,20.80
2017-09-28T09:41:02.244Z,20.80
2017-09-28T09:43:36.233Z,20.80
2017-09-28T09:46:10.977Z,20.70
2017-09-28T09:48:46.545Z,20.80
2017-09-28T09:51:20.895Z,20.70
2017-09-28T09:53:55.792Z,20.80
2017-09-28T09:56:29.823Z,20.80
2017-09-28T09:59:03.862Z,20.80
2017-09-28T10:01:38.262Z,20.80
2017-09-28T10:04:12.282Z,20.80
2017-09-28T10:06:55.521Z,20.80
2017-09-28T10:09:32.542Z,20.80
2017-09-28T10:12:10.726Z,20.80
2017-09-28T10:14:48.236Z,20.80
2017-09-28T10:17:23.317Z,20.80
2017-09-28T10:19:57.133Z,20.80
2017-09-28T10:22:30.777Z,20.80
2017-09-28T10:25:05.449Z,20.90
2017-09-28T10:27:40.351Z,20.80
2017-09-28T10:30:14.995Z,20.80
2017-09-28T10:32:48.928Z,20.80
2017-09-28T10:35:22.649Z,20.70
2017-09-28T10:37:56.380Z,20.60
2017-09-28T10:40:30.269Z,20.60
2017-09-28T10:43:05.429Z,20.80
2017-09-28T10:45:39.389Z,20.80
2017-09-28T10:48:13.116Z,20.80
2017-09-28T10:50:46.788Z,20.80
2017-09-28T10:53:20.693Z,20.70
2017-09-28T10:55:54.393Z,20.70
2017-09-28T10:58:28.102Z,20.70
2017-09-28T11:01:03.791Z,20.90
2017-09-28T11:03:37.713Z,20.90
2017-09-28T11:06:12.462Z,20.80
2017-09-28T11:08:47.905Z,20.80
2017-09-28T11:11:23.017Z,20.90
2017-09-28T11:13:57.020Z,20.90
2017-09-28T11:16:31.077Z,21.10
2017-09-28T11:19:04.755Z,21.10
2017-09-28T11:21:38.707Z,21.10
2017-09-28T11:24:13.197Z,21.20
2017-09-28T11:26:48.053Z,21.20
2017-09-28T11:29:22.845Z,21.20
2017-09-28T11:31:57.682Z,21.30
2017-09-28T11:34:31.557Z,21.30
2017-09-28T11:37:05.850Z,21.40
2017-09-28T11:39:39.941Z,21.70
2017-09-28T11:42:13.641Z,21.80
2017-09-28T11:44:48.112Z,21.70
2017-09-28T11:47:22.070Z,21.70
2017-09-28T11:49:56.552Z,21.70
2017-09-28T11:52:31.278Z,21.70
2017-09-28T11:55:05.329Z,21.70
2017-09-28T11:57:39.990Z,21.80
2017-09-28T12:00:13.829Z,21.80
2017-09-28T12:02:47.554Z,22.00
2017-09-28T12:05:22.057Z,22.10
2017-09-28T12:07:56.115Z,22.00
2017-09-28T12:10:29.914Z,22.10
2017-09-28T12:13:04.585Z,22.30
2017-09-28T12:15:38.552Z,22.30
2017-09-28T12:18:13.817Z,22.20
2017-09-28T12:20:48.094Z,22.20
2017-09-28T12:23:21.969Z,22.10
2017-09-28T12:25:55.805Z,22.20
2017-09-28T12:28:29.577Z,22.20
2017-09-28T12:31:04.927Z,22.30
2017-09-28T12:33:38.969Z,22.30
2017-09-28T12:36:13.859Z,22.50
2017-09-28T12:38:47.879Z,22.40
2017-09-28T12:41:21.734Z,22.40
2017-09-28T12:43:55.397Z,22.30
2017-09-28T12:46:29.217Z,22.40
2017-09-28T12:49:03.039Z,22.40
2017-09-28T12:51:37.728Z,22.20
2017-09-28T12:54:11.605Z,22.20
2017-09-28T12:56:47.239Z,22.20
2017-09-28T12:59:21.091Z,22.10
2017-09-28T13:01:54.889Z,22.10
2017-09-28T13:04:30.111Z,22.10
2017-09-28T13:07:04.773Z,22.10
2017-09-28T13:09:38.802Z,22.10
2017-09-28T13:12:12.670Z,22.20
2017-09-28T13:14:47.809Z,22.30
2017-09-28T13:17:22.098Z,22.20
2017-09-28T13:19:57.002Z,22.70
2017-09-28T13:22:30.769Z,22.70
2017-09-28T13:25:04.572Z,22.80
2017-09-28T13:27:38.518Z,22.80
2017-09-28T13:30:12.861Z,22.60
2017-09-28T13:32:46.935Z,22.60
2017-09-28T13:35:20.665Z,22.50
2017-09-28T13:37:54.545Z,22.40
2017-09-28T13:40:28.249Z,22.30
2017-09-28T13:43:02.052Z,22.40
2017-09-28T13:45:36.252Z,22.30
2017-09-28T13:48:09.951Z,22.30
2017-09-28T13:50:43.826Z,22.30
2017-09-28T13:53:17.704Z,22.40
2017-09-28T13:55:52.051Z,22.60
2017-09-28T13:58:27.814Z,22.60
2017-09-28T14:01:02.320Z,22.60
2017-09-28T14:03:36.115Z,22.60
2017-09-28T14:06:09.967Z,22.60
2017-09-28T14:08:46.812Z,22.70
2017-09-28T14:11:20.791Z,22.80
2017-09-28T14:13:55.750Z,23.10
2017-09-28T14:16:29.962Z,23.10
2017-09-28T14:19:04.610Z,23.40
2017-09-28T14:21:38.758Z,23.40
2017-09-28T14:24:13.330Z,23.40
2017-09-28T14:26:47.212Z,23.40
2017-09-28T14:29:21.890Z,23.70
2017-09-28T14:31:55.900Z,23.70
2017-09-28T14:34:29.631Z,23.60
2017-09-28T14:37:03.780Z,23.60
2017-09-28T14:39:37.725Z,23.60
2017-09-28T14:42:12.518Z,23.40
2017-09-28T14:44:46.297Z,23.40
2017-09-28T14:47:20.077Z,23.50
2017-09-28T14:49:54.661Z,23.40
2017-09-28T14:52:28.735Z,23.40
2017-09-28T14:55:02.373Z,23.40
2017-09-28T14:57:36.977Z,23.60
2017-09-28T15:00:10.876Z,23.60
2017-09-28T15:02:44.714Z,23.60
2017-09-28T15:05:18.392Z,23.50
2017-09-28T15:07:52.386Z,23.40
2017-09-28T15:10:26.826Z,23.50
2017-09-28T15:13:00.693Z,23.40
2017-09-28T15:15:34.393Z,23.60
2017-09-28T15:18:08.285Z,23.40
2017-09-28T15:20:42.129Z,23.40
2017-09-28T15:23:16.802Z,23.50
2017-09-28T15:25:51.549Z,23.30
2017-09-28T15:28:26.371Z,23.30
2017-09-28T15:31:00.569Z,23.30
2017-09-28T15:33:35.005Z,23.20
2017-09-28T15:36:09.240Z,23.20
2017-09-28T15:38:43.126Z,23.30
2017-09-28T15:41:18.691Z,23.10
2017-09-28T15:43:52.568Z,23.10
2017-09-28T15:46:26.284Z,23.10
2017-09-28T15:49:00.332Z,23.00
2017-09-28T15:51:34.298Z,23.10
2017-09-28T15:54:08.911Z,23.10
2017-09-28T15:56:43.568Z,23.10
2017-09-28T15:59:18.761Z,23.30
2017-09-28T16:01:54.478Z,23.30
2017-09-28T16:04:28.319Z,23.30
2017-09-28T16:07:03.036Z,23.00
2017-09-28T16:09:37.323Z,23.00
2017-09-28T16:12:11.766Z,23.00
2017-09-28T16:14:45.916Z,22.90
2017-09-28T16:17:21.307Z,22.90
2017-09-28T16:19:56.324Z,22.90
2017-09-28T16:22:31.057Z,22.90
2017-09-28T16:25:05.048Z,22.90
2017-09-28T16:27:39.653Z,23.10
2017-09-28T16:30:13.647Z,23.00
2017-09-28T16:32:47.473Z,23.00
2017-09-28T16:35:21.414Z,23.00
2017-09-28T16:37:56.970Z,23.00
2017-09-28T16:40:31.054Z,23.00
2017-09-28T16:43:04.862Z,22.90
2017-09-28T16:45:38.688Z,22.90
2017-09-28T16:48:12.304Z,22.80
2017-09-28T16:50:46.122Z,22.80
2017-09-28T16:53:19.793Z,22.70
2017-09-28T16:55:54.327Z,22.60
2017-09-28T16:58:28.246Z,22.60
2017-09-28T17:01:01.962Z,22.60
2017-09-28T17:03:35.716Z,22.60
2017-09-28T17:06:09.674Z,22.60
2017-09-28T17:08:43.537Z,22.60
2017-09-28T17:11:18.236Z,22.40
2017-09-28T17:13:53.065Z,22.40
2017-09-28T17:16:27.693Z,22.40
2017-09-28T17:19:01.777Z,22.40
2017-09-28T17:21:35.713Z,22.30
2017-09-28T17:24:09.700Z,22.30
2017-09-28T17:26:44.227Z,22.00
2017-09-28T17:29:18.084Z,22.00
2017-09-28T17:31:51.982Z,22.00
2017-09-28T17:34:26.717Z,22.10
2017-09-28T17:37:01.565Z,22.20
2017-09-28T17:39:35.377Z,22.10
2017-09-28T17:42:09.254Z,22.20
2017-09-28T17:44:43.057Z,22.20
2017-09-28T17:47:18.400Z,22.20
2017-09-28T17:49:53.285Z,22.20
2017-09-28T17:52:27.453Z,22.10
2017-09-28T17:55:01.919Z,21.80
2017-09-28T17:57:35.949Z,21.80
2017-09-28T18:00:09.962Z,21.70
2017-09-28T18:02:43.779Z,21.80
2017-09-28T18:05:17.567Z,21.80
2017-09-28T18:07:51.599Z,22.00
2017-09-28T18:10:25.377Z,22.00
2017-09-28T18:12:59.065Z,22.10
2017-09-28T18:15:32.807Z,21.80
2017-09-28T18:18:07.437Z,21.40
2017-09-28T18:20:41.557Z,21.40
2017-09-28T18:23:15.240Z,21.40
2017-09-28T18:25:49.737Z,21.60
2017-09-28T18:28:23.770Z,21.60
2017-09-28T18:30:57.817Z,21.70
2017-09-28T18:33:31.602Z,21.80
2017-09-28T18:36:05.361Z,22.00
2017-09-28T18:38:39.208Z,22.00
2017-09-28T18:41:12.849Z,22.10
2017-09-28T18:43:46.669Z,22.10
2017-09-28T18:46:20.406Z,22.00
2017-09-28T18:48:54.292Z,22.10
2017-09-28T18:51:28.858Z,22.10
2017-09-28T18:54:02.806Z,22.10
2017-09-28T18:56:37.541Z,22.00
2017-09-28T18:59:12.177Z,22.00
2017-09-28T19:01:46.967Z,22.00
2017-09-28T19:04:21.374Z,22.00
2017-09-28T19:06:55.613Z,22.00
2017-09-28T19:09:30.230Z,22.00
2017-09-28T19:12:04.710Z,21.90
2017-09-28T19:14:38.846Z,21.90
2017-09-28T19:17:13.432Z,21.90
2017-09-28T19:19:47.444Z,21.90
2017-09-28T19:22:22.045Z,22.20
2017-09-28T19:24:56.619Z,22.70
2017-09-28T19:27:31.539Z,22.60
2017-09-28T19:30:06.164Z,22.70
2017-09-28T19:32:41.231Z,22.70
2017-09-28T19:35:15.614Z,22.70
2017-09-28T19:37:50.113Z,22.70
2017-09-28T19:40:24.766Z,22.70
2017-09-28T19:42:58.796Z,22.70
2017-09-28T19:45:32.483Z,22.70
2017-09-28T19:48:06.098Z,22.70
2017-09-28T19:50:40.017Z,22.60
2017-09-28T19:53:13.745Z,22.70
2017-09-28T19:55:47.524Z,22.70
2017-09-28T19:58:21.152Z,22.70
2017-09-28T20:00:55.694Z,22.70
2017-09-28T20:03:32.896Z,22.70
2017-09-28T20:06:08.193Z,22.60
2017-09-28T20:08:43.169Z,22.50
2017-09-28T20:11:17.762Z,22.50
2017-09-28T20:13:52.510Z,22.40
2017-09-28T20:16:26.536Z,22.40
2017-09-28T20:19:01.039Z,22.30
2017-09-28T20:21:35.644Z,22.30
2017-09-28T20:24:10.378Z,22.30
2017-09-28T20:26:45.097Z,22.20
2017-09-28T20:29:19.084Z,22.20
2017-09-28T20:31:52.702Z,22.30
2017-09-28T20:34:26.469Z,22.30
2017-09-28T20:37:00.302Z,22.20
2017-09-28T20:39:34.367Z,22.30
2017-09-28T20:42:07.956Z,22.20
2017-09-28T20:44:41.786Z,22.20
2017-09-28T20:47:16.405Z,22.20
2017-09-28T20:49:50.284Z,22.20
2017-09-28T20:52:24.030Z,22.10
2017-09-28T20:54:57.880Z,22.10
2017-09-28T20:57:31.696Z,22.20
2017-09-28T21:00:05.624Z,22.20
2017-09-28T21:02:40.252Z,22.20
2017-09-28T21:05:14.361Z,22.20
2017-09-28T21:07:50.907Z,22.20
2017-09-28T21:10:24.927Z,22.20
2017-09-28T21:13:00.166Z,22.20
2017-09-28T21:15:33.943Z,22.20
2017-09-28T21:18:07.624Z,22.20
2017-09-28T21:20:48.564Z,22.20
2017-09-28T21:23:23.219Z,22.20
2017-09-28T21:25:57.625Z,22.20
2017-09-28T21:28:31.825Z,22.20
2017-09-28T21:31:05.562Z,22.20
2017-09-28T21:33:39.222Z,22.10
2017-09-28T21:36:13.938Z,22.10
2017-09-28T21:38:48.758Z,22.10
2017-09-28T21:41:22.898Z,22.10
2017-09-28T21:43:57.285Z,22.10
2017-09-28T21:46:31.386Z,22.10
2017-09-28T21:49:05.275Z,22.10
2017-09-28T21:51:39.122Z,22.10
2017-09-28T21:54:13.640Z,22.10
2017-09-28T21:56:47.471Z,22.10
2017-09-28T21:59:22.203Z,22.00
2017-09-28T22:01:56.801Z,22.10
2017-09-28T22:04:32.125Z,22.10
2017-09-28T22:07:06.736Z,22.00
2017-09-28T22:09:40.561Z,22.00
2017-09-28T22:12:14.234Z,22.00
2017-09-28T22:14:48.127Z,22.00
2017-09-28T22:17:21.801Z,22.00
2017-09-28T22:19:55.634Z,22.00
2017-09-28T22:22:30.050Z,22.00
2017-09-28T22:25:03.937Z,22.00
2017-09-28T22:27:38.483Z,22.00
2017-09-28T22:30:12.241Z,22.00
2017-09-28T22:32:46.735Z,22.00
2017-09-28T22:35:20.663Z,22.00
2017-09-28T22:37:55.362Z,22.00
2017-09-28T22:40:29.138Z,22.00
2017-09-28T22:43:03.020Z,22.10
2017-09-28T22:45:37.707Z,22.00
2017-09-28T22:48:12.283Z,22.00
2017-09-28T22:50:46.699Z,22.10
2017-09-28T22:53:20.745Z,22.10
2017-09-28T22:55:55.530Z,22.10
2017-09-28T22:58:29.674Z,22.00
2017-09-28T23:01:03.506Z,22.00
2017-09-28T23:03:37.253Z,22.00
2017-09-28T23:06:11.653Z,22.10
2017-09-28T23:08:45.542Z,22.10
2017-09-28T23:11:19.395Z,22.00
2017-09-28T23:13:54.099Z,22.00
2017-09-28T23:16:28.935Z,22.00
2017-09-28T23:19:02.907Z,22.00
2017-09-28T23:21:36.708Z,22.00
2017-09-28T23:24:10.569Z,22.00
2017-09-28T23:26:45.304Z,22.00
2017-09-28T23:29:19.698Z,22.00
2017-09-28T23:31:53.709Z,22.00
2017-09-28T23:34:28.266Z,22.10
2017-09-28T23:37:03.066Z,22.00
2017-09-28T23:39:37.204Z,22.00
2017-09-28T23:42:11.778Z,22.00
2017-09-28T23:44:49.145Z,22.00
2017-09-28T23:47:23.790Z,22.00
2017-09-28T23:49:57.782Z,22.00
2017-09-28T23:52:32.439Z,22.00
2017-09-28T23:55:06.260Z,22.00
2017-09-28T23:57:40.041Z,22.00
